createdAt,value
2019-03-16T00:01:56.490Z,99782.17
2019-03-16T00:04:19.262Z,99783.94
2019-03-16T00:06:50.747Z,99790.25
2019-03-16T00:09:22.117Z,99794.13
2019-03-16T00:11:53.681Z,99793.08
2019-03-16T00:14:25.231Z,99793.73
2019-03-16T00:16:56.995Z,99797.27
2019-03-16T00:19:28.610Z,99797.27
2019-03-16T00:22:00.045Z,99802.08
2019-03-16T00:24:31.312Z,99802.08
2019-03-16T00:27:02.524Z,99806.86
2019-03-16T00:29:33.744Z,99805.52
2019-03-16T00:32:13.388Z,99805.52
2019-03-16T00:34:38.025Z,99808.23
2019-03-16T00:37:09.961Z,99805.13
2019-03-16T00:39:41.891Z,99805.94
2019-03-16T00:42:13.112Z,99800.61
2019-03-16T00:44:45.530Z,99800.61
2019-03-16T00:47:16.809Z,99801.36
2019-03-16T00:49:48.143Z,99801.36
2019-03-16T00:52:19.633Z,99796.98
2019-03-16T00:54:51.035Z,99801.30
2019-03-16T00:57:22.242Z,99801.30
2019-03-16T00:59:53.747Z,99799.69
2019-03-16T01:02:27.402Z,99802.94
2019-03-16T01:04:59.242Z,99802.94
2019-03-16T01:07:30.940Z,99812.34
2019-03-16T01:10:02.491Z,99812.34
2019-03-16T01:12:33.946Z,99812.64
2019-03-16T01:15:05.738Z,99813.80
2019-03-16T01:17:37.381Z,99813.80
2019-03-16T01:20:09.028Z,99815.55
2019-03-16T01:22:40.637Z,99815.55
2019-03-16T01:25:13.115Z,99810.38
2019-03-16T01:27:45.807Z,99810.63
2019-03-16T01:30:17.653Z,99809.61
2019-03-16T01:32:49.452Z,99809.61
2019-03-16T01:35:20.902Z,99809.03
2019-03-16T01:37:52.139Z,99814.83
2019-03-16T01:40:23.403Z,99818.52
2019-03-16T01:42:54.869Z,99822.70
2019-03-16T01:45:26.067Z,99828.56
2019-03-16T01:47:57.452Z,99828.47
2019-03-16T01:50:29.009Z,99826.40
2019-03-16T01:53:00.413Z,99835.77
2019-03-16T01:55:31.663Z,99840.56
2019-03-16T01:58:02.982Z,99840.56
2019-03-16T02:00:35.005Z,99845.02
2019-03-16T02:03:06.430Z,99845.02
2019-03-16T02:05:38.008Z,99857.88
2019-03-16T02:08:09.378Z,99860.97
2019-03-16T02:10:40.844Z,99861.00
2019-03-16T02:13:13.327Z,99861.00
2019-03-16T02:15:44.886Z,99858.34
2019-03-16T02:18:16.185Z,99858.34
2019-03-16T02:20:47.408Z,99858.96
2019-03-16T02:23:18.863Z,99859.76
2019-03-16T02:25:50.057Z,99851.45
2019-03-16T02:28:21.693Z,99849.16
2019-03-16T02:30:53.374Z,99854.60
2019-03-16T02:33:24.686Z,99857.73
2019-03-16T02:35:55.965Z,99858.89
2019-03-16T02:38:27.557Z,99869.53
2019-03-16T02:40:58.949Z,99869.53
2019-03-16T02:43:30.439Z,99876.05
2019-03-16T02:46:01.853Z,99873.95
2019-03-16T02:48:33.366Z,99872.92
2019-03-16T02:51:04.774Z,99878.22
2019-03-16T02:53:37.198Z,99899.94
2019-03-16T02:56:08.880Z,99899.94
2019-03-16T02:58:40.267Z,99898.48
2019-03-16T03:01:12.005Z,99910.28
2019-03-16T03:03:43.301Z,99926.79
2019-03-16T03:06:14.579Z,99926.79
2019-03-16T03:08:45.907Z,99930.08
2019-03-16T03:11:17.365Z,99936.23
2019-03-16T03:13:48.716Z,99936.23
2019-03-16T03:16:20.271Z,99950.37
2019-03-16T03:18:51.931Z,99950.37
2019-03-16T03:21:23.219Z,99947.27
2019-03-16T03:23:54.833Z,99947.64
2019-03-16T03:26:26.371Z,99955.41
2019-03-16T03:28:57.975Z,99955.41
2019-03-16T03:31:29.369Z,99957.26
2019-03-16T03:34:02.807Z,99957.26
2019-03-16T03:36:34.988Z,99965.41
2019-03-16T03:39:08.393Z,99965.41
2019-03-16T03:41:40.259Z,99972.62
2019-03-16T03:44:12.007Z,99986.87
2019-03-16T03:46:43.842Z,99981.75
2019-03-16T03:49:15.567Z,99981.75
2019-03-16T03:51:47.132Z,99981.56
2019-03-16T03:54:18.998Z,99977.20
2019-03-16T03:56:50.908Z,99978.46
2019-03-16T03:59:23.153Z,99978.46
2019-03-16T04:01:54.999Z,99981.86
2019-03-16T04:04:27.056Z,99981.86
2019-03-16T04:06:58.447Z,99980.11
2019-03-16T04:09:30.219Z,99981.86
2019-03-16T04:12:01.651Z,99981.86
2019-03-16T04:14:33.268Z,99977.92
2019-03-16T04:17:04.983Z,99979.67
2019-03-16T04:19:38.297Z,99976.55
2019-03-16T04:22:10.027Z,99976.55
2019-03-16T04:24:45.147Z,99971.91
2019-03-16T04:27:16.302Z,99970.63
2019-03-16T04:29:48.084Z,99970.33
2019-03-16T04:32:21.428Z,99970.33
2019-03-16T04:34:52.800Z,99972.42
2019-03-16T04:37:27.151Z,99960.58
2019-03-16T04:39:58.717Z,99954.57
2019-03-16T04:42:30.039Z,99957.98
2019-03-16T04:45:01.402Z,99961.18
2019-03-16T04:47:34.546Z,99957.07
2019-03-16T04:50:06.059Z,99957.07
2019-03-16T04:52:37.459Z,99955.89
2019-03-16T04:55:08.751Z,99957.48
2019-03-16T04:57:40.460Z,99968.49
2019-03-16T05:00:12.415Z,99968.49
2019-03-16T05:02:44.053Z,99968.20
2019-03-16T05:05:16.331Z,99964.95
2019-03-16T05:07:47.715Z,99964.95
2019-03-16T05:10:19.040Z,99973.76
2019-03-16T05:12:51.714Z,99981.92
2019-03-16T05:15:23.198Z,99971.39
2019-03-16T05:17:54.732Z,99979.50
2019-03-16T05:20:26.501Z,99979.50
2019-03-16T05:22:57.881Z,99985.23
2019-03-16T05:25:29.204Z,99985.23
2019-03-16T05:28:00.467Z,99988.34
2019-03-16T05:30:31.996Z,99988.81
2019-03-16T05:33:03.638Z,99983.33
2019-03-16T05:35:35.911Z,99983.33
2019-03-16T05:38:07.388Z,99989.84
2019-03-16T05:40:38.781Z,99989.84
2019-03-16T05:43:10.281Z,99977.98
2019-03-16T05:45:41.569Z,99973.85
2019-03-16T05:48:13.021Z,99973.85
2019-03-16T05:50:44.532Z,99973.64
2019-03-16T05:53:15.878Z,99964.26
2019-03-16T05:55:48.045Z,99966.11
2019-03-16T05:58:19.312Z,99966.12
2019-03-16T06:00:52.140Z,99965.95
2019-03-16T06:03:24.221Z,99945.89
2019-03-16T06:05:56.195Z,99945.89
2019-03-16T06:08:27.542Z,99947.97
2019-03-16T06:10:59.715Z,99944.94
2019-03-16T06:13:31.889Z,99944.19
2019-03-16T06:16:05.003Z,99943.53
2019-03-16T06:18:36.918Z,99935.53
2019-03-16T06:21:08.801Z,99932.87
2019-03-16T06:23:40.104Z,99924.16
2019-03-16T06:26:12.563Z,99924.16
2019-03-16T06:28:50.117Z,99920.97
2019-03-16T06:31:21.858Z,99921.88
2019-03-16T06:33:53.544Z,99909.13
2019-03-16T06:36:25.324Z,99908.03
2019-03-16T06:38:57.121Z,99908.03
2019-03-16T06:41:28.825Z,99909.28
2019-03-16T06:44:00.323Z,99909.28
2019-03-16T06:46:31.731Z,99896.06
2019-03-16T06:49:03.441Z,99877.86
2019-03-16T06:51:35.102Z,99877.86
2019-03-16T06:54:06.964Z,99861.94
2019-03-16T06:56:39.635Z,99856.30
2019-03-16T06:59:11.548Z,99856.30
2019-03-16T07:01:43.256Z,99853.84
2019-03-16T07:04:14.762Z,99845.38
2019-03-16T07:06:46.705Z,99844.70
2019-03-16T07:09:18.560Z,99833.20
2019-03-16T07:11:50.340Z,99833.20
2019-03-16T07:14:22.124Z,99819.59
2019-03-16T07:17:02.043Z,99819.22
2019-03-16T07:19:27.009Z,99819.22
2019-03-16T07:21:58.723Z,99803.68
2019-03-16T07:24:30.438Z,99803.68
2019-03-16T07:27:07.867Z,99791.87
2019-03-16T07:29:41.278Z,99791.87
2019-03-16T07:32:13.608Z,99785.84
2019-03-16T07:34:46.473Z,99774.31
2019-03-16T07:37:19.949Z,99774.31
2019-03-16T07:39:51.573Z,99763.76
2019-03-16T07:42:23.527Z,99755.54
2019-03-16T07:45:07.625Z,99734.16
2019-03-16T07:47:28.711Z,99735.09
2019-03-16T07:50:00.676Z,99735.09
2019-03-16T07:52:32.310Z,99733.30
2019-03-16T07:55:04.401Z,99725.88
2019-03-16T07:57:40.376Z,99722.27
2019-03-16T08:00:10.310Z,99706.16
2019-03-16T08:02:42.173Z,99706.16
2019-03-16T08:05:18.783Z,99693.23
2019-03-16T08:07:48.029Z,99700.24
2019-03-16T08:10:19.870Z,99687.48
2019-03-16T08:12:52.473Z,99687.48
2019-03-16T08:15:28.146Z,99673.51
2019-03-16T08:18:01.770Z,99673.51
2019-03-16T08:20:35.486Z,99662.75
2019-03-16T08:23:09.787Z,99662.75
2019-03-16T08:25:42.168Z,99656.91
2019-03-16T08:28:16.434Z,99652.98
2019-03-16T08:30:48.958Z,99640.63
2019-03-16T08:33:20.732Z,99635.84
2019-03-16T08:35:52.264Z,99639.27
2019-03-16T08:38:23.933Z,99619.83
2019-03-16T08:40:55.834Z,99627.71
2019-03-16T08:43:28.259Z,99627.71
2019-03-16T08:46:00.338Z,99623.20
2019-03-16T08:48:32.045Z,99623.20
2019-03-16T08:51:04.013Z,99614.91
2019-03-16T08:53:36.055Z,99614.91
2019-03-16T08:56:08.063Z,99618.88
2019-03-16T08:58:39.678Z,99620.09
2019-03-16T09:01:12.481Z,99620.09
2019-03-16T09:03:44.968Z,99610.67
2019-03-16T09:06:17.738Z,99607.94
2019-03-16T09:08:50.668Z,99593.27
2019-03-16T09:11:22.806Z,99593.27
2019-03-16T09:13:56.059Z,99602.19
2019-03-16T09:16:29.197Z,99583.59
2019-03-16T09:19:02.275Z,99586.91
2019-03-16T09:21:35.111Z,99581.11
2019-03-16T09:24:07.137Z,99581.11
2019-03-16T09:26:39.003Z,99580.16
2019-03-16T09:29:15.112Z,99575.23
2019-03-16T09:31:44.771Z,99572.02
2019-03-16T09:34:16.681Z,99570.59
2019-03-16T09:36:48.789Z,99568.05
2019-03-16T09:39:20.371Z,99574.28
2019-03-16T09:41:52.308Z,99560.52
2019-03-16T09:44:23.822Z,99562.51
2019-03-16T09:46:55.795Z,99562.51
2019-03-16T09:49:27.645Z,99565.52
2019-03-16T09:52:00.055Z,99560.61
2019-03-16T09:54:32.331Z,99557.02
2019-03-16T09:57:04.639Z,99557.02
2019-03-16T09:59:39.066Z,99551.73
2019-03-16T10:02:11.013Z,99555.48
2019-03-16T10:04:43.497Z,99552.83
2019-03-16T10:07:16.134Z,99550.63
2019-03-16T10:09:48.159Z,99545.19
2019-03-16T10:12:20.497Z,99551.48
2019-03-16T10:14:53.855Z,99551.48
2019-03-16T10:17:30.084Z,99549.25
2019-03-16T10:20:05.308Z,99541.66
2019-03-16T10:22:38.543Z,99537.75
2019-03-16T10:25:35.099Z,99537.75
2019-03-16T10:28:08.257Z,99536.20
2019-03-16T10:30:41.858Z,99527.19
2019-03-16T10:33:14.548Z,99534.00
2019-03-16T10:35:48.083Z,99532.09
2019-03-16T10:38:22.056Z,99529.02
2019-03-16T10:40:55.369Z,99536.91
2019-03-16T10:43:27.762Z,99530.51
2019-03-16T10:45:59.664Z,99532.09
2019-03-16T10:48:31.576Z,99528.54
2019-03-16T10:51:03.397Z,99531.30
2019-03-16T10:53:35.395Z,99526.91
2019-03-16T10:56:08.237Z,99529.93
2019-03-16T10:58:40.546Z,99537.06
2019-03-16T11:01:12.412Z,99537.06
2019-03-16T11:03:45.112Z,99542.13
2019-03-16T11:06:17.647Z,99541.91
2019-03-16T11:08:50.070Z,99541.91
2019-03-16T11:11:22.507Z,99538.28
2019-03-16T11:13:55.098Z,99529.55
2019-03-16T11:16:27.473Z,99530.23
2019-03-16T11:18:59.834Z,99522.67
2019-03-16T11:21:32.010Z,99522.67
2019-03-16T11:24:04.186Z,99527.34
2019-03-16T11:26:38.065Z,99528.18
2019-03-16T11:29:10.835Z,99532.88
2019-03-16T11:31:42.903Z,99536.36
2019-03-16T11:34:15.875Z,99527.48
2019-03-16T11:36:48.398Z,99507.52
2019-03-16T11:39:20.727Z,99507.52
2019-03-16T11:41:52.844Z,99518.67
2019-03-16T11:44:25.775Z,99527.59
2019-03-16T11:46:58.353Z,99517.87
2019-03-16T11:49:30.149Z,99513.91
2019-03-16T11:52:02.232Z,99518.30
2019-03-16T11:54:35.142Z,99514.30
2019-03-16T11:57:06.751Z,99514.30
2019-03-16T11:59:38.816Z,99518.36
2019-03-16T12:02:10.429Z,99514.39
2019-03-16T12:04:42.187Z,99519.92
2019-03-16T12:07:14.716Z,99519.92
2019-03-16T12:09:47.138Z,99522.20
2019-03-16T12:12:18.983Z,99522.20
2019-03-16T12:14:50.826Z,99526.86
2019-03-16T12:17:22.286Z,99533.94
2019-03-16T12:19:54.783Z,99534.78
2019-03-16T12:22:27.130Z,99538.03
2019-03-16T12:24:59.460Z,99537.67
2019-03-16T12:27:31.324Z,99540.16
2019-03-16T12:30:03.686Z,99538.13
2019-03-16T12:32:36.187Z,99547.21
2019-03-16T12:35:09.710Z,99558.25
2019-03-16T12:37:42.173Z,99559.81
2019-03-16T12:40:14.898Z,99560.76
2019-03-16T12:42:47.403Z,99561.81
2019-03-16T12:45:20.743Z,99561.81
2019-03-16T12:47:54.613Z,99568.78
2019-03-16T12:50:27.828Z,99571.50
2019-03-16T12:52:59.973Z,99578.31
2019-03-16T12:55:33.479Z,99578.31
2019-03-16T12:58:13.254Z,99577.08
2019-03-16T13:00:45.016Z,99578.30
2019-03-16T13:03:16.763Z,99578.30
2019-03-16T13:05:48.441Z,99578.38
2019-03-16T13:08:20.226Z,99580.94
2019-03-16T13:10:52.943Z,99581.63
2019-03-16T13:13:25.361Z,99581.63
2019-03-16T13:15:56.975Z,99577.34
2019-03-16T13:18:28.671Z,99577.34
2019-03-16T13:21:00.304Z,99589.08
2019-03-16T13:23:31.797Z,99589.20
2019-03-16T13:26:03.801Z,99589.20
2019-03-16T13:28:36.474Z,99594.81
2019-03-16T13:31:08.839Z,99594.81
2019-03-16T13:33:40.732Z,99599.31
2019-03-16T13:36:13.224Z,99607.02
2019-03-16T13:38:45.528Z,99607.02
2019-03-16T13:41:17.911Z,99608.92
2019-03-16T13:43:49.979Z,99618.22
2019-03-16T13:46:21.388Z,99618.22
2019-03-16T13:48:53.051Z,99617.98
2019-03-16T13:51:24.845Z,99629.30
2019-03-16T13:53:56.933Z,99624.67
2019-03-16T13:56:28.805Z,99625.25
2019-03-16T13:59:00.888Z,99630.02
2019-03-16T14:01:32.794Z,99643.47
2019-03-16T14:04:05.312Z,99641.23
2019-03-16T14:06:37.782Z,99646.27
2019-03-16T14:09:10.062Z,99647.35
2019-03-16T14:11:42.046Z,99647.35
2019-03-16T14:14:13.428Z,99653.16
2019-03-16T14:16:45.024Z,99659.98
2019-03-16T14:19:16.919Z,99658.91
2019-03-16T14:21:48.730Z,99667.28
2019-03-16T14:24:21.195Z,99669.16
2019-03-16T14:26:52.740Z,99669.16
2019-03-16T14:29:24.391Z,99666.20
2019-03-16T14:31:56.171Z,99666.20
2019-03-16T14:34:28.357Z,99669.92
2019-03-16T14:37:01.514Z,99669.41
2019-03-16T14:39:33.216Z,99669.41
2019-03-16T14:42:05.107Z,99667.56
2019-03-16T14:44:36.472Z,99670.22
2019-03-16T14:47:09.035Z,99673.61
2019-03-16T14:49:41.037Z,99663.95
2019-03-16T14:52:12.747Z,99663.95
2019-03-16T14:54:44.967Z,99657.18
2019-03-16T14:57:16.663Z,99663.63
2019-03-16T14:59:48.206Z,99663.63
2019-03-16T15:02:20.201Z,99664.80
2019-03-16T15:04:52.056Z,99668.37
2019-03-16T15:07:23.709Z,99665.36
2019-03-16T15:09:55.354Z,99663.83
2019-03-16T15:12:26.803Z,99662.59
2019-03-16T15:14:58.165Z,99667.89
2019-03-16T15:17:29.776Z,99667.89
2019-03-16T15:20:01.236Z,99681.45
2019-03-16T15:22:33.113Z,99676.40
2019-03-16T15:25:05.044Z,99685.89
2019-03-16T15:27:36.897Z,99685.89
2019-03-16T15:30:10.421Z,99686.64
2019-03-16T15:32:41.974Z,99690.75
2019-03-16T15:35:14.232Z,99684.17
2019-03-16T15:37:45.883Z,99686.27
2019-03-16T15:40:17.463Z,99679.50
2019-03-16T15:42:49.087Z,99684.77
2019-03-16T15:45:21.955Z,99689.52
2019-03-16T15:47:53.586Z,99695.70
2019-03-16T15:50:25.098Z,99695.70
2019-03-16T15:52:56.452Z,99694.56
2019-03-16T15:55:28.214Z,99700.89
2019-03-16T15:58:07.907Z,99693.84
2019-03-16T16:00:33.163Z,99693.84
